sensor_id;sensor_type;location;lat;lon;timestamp;temperature;humidity
9509;DHT22;4792;50.088;8.122;2022-10-03T00:01:12;10.30;99.90
9509;DHT22;4792;50.088;8.122;2022-10-03T00:03:51;10.30;99.90
9509;DHT22;4792;50.088;8.122;2022-10-03T00:06:29;10.30;99.90
9509;DHT22;4792;50.088;8.122;2022-10-03T00:12:02;10.20;99.90
9509;DHT22;4792;50.088;8.122;2022-10-03T00:14:40;10.30;99.90
9509;DHT22;4792;50.088;8.122;2022-10-03T00:17:14;10.30;99.90
9509;DHT22;4792;50.088;8.122;2022-10-03T00:19:50;10.20;99.90
9509;DHT22;4792;50.088;8.122;2022-10-03T00:22:31;10.20;99.90
9509;DHT22;4792;50.088;8.122;2022-10-03T00:25:21;10.30;99.90
9509;DHT22;4792;50.088;8.122;2022-10-03T00:28:09;10.20;99.90
9509;DHT22;4792;50.088;8.122;2022-10-03T00:30:55;10.10;99.90
9509;DHT22;4792;50.088;8.122;2022-10-03T00:33:38;10.10;99.90
9509;DHT22;4792;50.088;8.122;2022-10-03T00:36:13;10.10;99.90
9509;DHT22;4792;50.088;8.122;2022-10-03T00:39:14;10.10;99.90
9509;DHT22;4792;50.088;8.122;2022-10-03T00:42:08;10.00;99.90
9509;DHT22;4792;50.088;8.122;2022-10-03T00:48:09;9.80;99.90
9509;DHT22;4792;50.088;8.122;2022-10-03T00:53:52;9.70;99.90
9509;DHT22;4792;50.088;8.122;2022-10-03T00:56:44;9.70;99.90
9509;DHT22;4792;50.088;8.122;2022-10-03T00:59:27;9.70;99.90
9509;DHT22;4792;50.088;8.122;2022-10-03T01:02:16;9.60;99.90
9509;DHT22;4792;50.088;8.122;2022-10-03T01:04:57;9.60;99.90
9509;DHT22;4792;50.088;8.122;2022-10-03T01:07:44;9.60;99.90
9509;DHT22;4792;50.088;8.122;2022-10-03T01:10:17;9.60;99.90
9509;DHT22;4792;50.088;8.122;2022-10-03T01:13:08;9.60;99.90
9509;DHT22;4792;50.088;8.122;2022-10-03T01:15:50;9.60;99.90
9509;DHT22;4792;50.088;8.122;2022-10-03T01:18:34;9.60;99.90
9509;DHT22;4792;50.088;8.122;2022-10-03T01:21:15;9.60;99.90
9509;DHT22;4792;50.088;8.122;2022-10-03T01:24:02;9.50;99.90
9509;DHT22;4792;50.088;8.122;2022-10-03T01:26:54;9.50;99.90
9509;DHT22;4792;50.088;8.122;2022-10-03T01:29:38;9.50;99.90
9509;DHT22;4792;50.088;8.122;2022-10-03T01:32:29;9.50;99.90
9509;DHT22;4792;50.088;8.122;2022-10-03T01:35:08;9.50;99.90
9509;DHT22;4792;50.088;8.122;2022-10-03T01:37:44;9.50;99.90
9509;DHT22;4792;50.088;8.122;2022-10-03T01:40:24;9.50;99.90
9509;DHT22;4792;50.088;8.122;2022-10-03T01:43:07;9.50;99.90
9509;DHT22;4792;50.088;8.122;2022-10-03T01:45:45;9.60;99.90
9509;DHT22;4792;50.088;8.122;2022-10-03T01:48:25;9.60;99.90
9509;DHT22;4792;50.088;8.122;2022-10-03T01:51:02;9.40;99.90
9509;DHT22;4792;50.088;8.122;2022-10-03T01:53:39;9.30;99.90
9509;DHT22;4792;50.088;8.122;2022-10-03T01:56:17;9.30;99.90
9509;DHT22;4792;50.088;8.122;2022-10-03T01:58:53;9.40;99.90
9509;DHT22;4792;50.088;8.122;2022-10-03T02:01:33;9.40;99.90
9509;DHT22;4792;50.088;8.122;2022-10-03T02:04:10;9.40;99.90
9509;DHT22;4792;50.088;8.122;2022-10-03T02:06:44;9.40;99.90
9509;DHT22;4792;50.088;8.122;2022-10-03T02:09:24;9.50;99.90
9509;DHT22;4792;50.088;8.122;2022-10-03T02:12:03;9.40;99.90
9509;DHT22;4792;50.088;8.122;2022-10-03T02:14:44;9.40;99.90
9509;DHT22;4792;50.088;8.122;2022-10-03T02:17:24;9.50;99.90
9509;DHT22;4792;50.088;8.122;2022-10-03T02:20:04;9.50;99.90
9509;DHT22;4792;50.088;8.122;2022-10-03T02:22:39;9.60;99.90
9509;DHT22;4792;50.088;8.122;2022-10-03T02:25:20;9.70;99.90
9509;DHT22;4792;50.088;8.122;2022-10-03T02:28:22;9.60;99.90
9509;DHT22;4792;50.088;8.122;2022-10-03T02:31:13;9.50;99.90
9509;DHT22;4792;50.088;8.122;2022-10-03T02:34:14;9.50;99.90
9509;DHT22;4792;50.088;8.122;2022-10-03T02:36:57;9.50;99.90
9509;DHT22;4792;50.088;8.122;2022-10-03T02:43:09;9.40;99.90
9509;DHT22;4792;50.088;8.122;2022-10-03T02:46:05;9.30;99.90
9509;DHT22;4792;50.088;8.122;2022-10-03T02:52:01;9.30;99.90
9509;DHT22;4792;50.088;8.122;2022-10-03T02:54:52;9.30;99.90
9509;DHT22;4792;50.088;8.122;2022-10-03T02:58:05;9.30;99.90
9509;DHT22;4792;50.088;8.122;2022-10-03T03:04:05;9.30;99.90
9509;DHT22;4792;50.088;8.122;2022-10-03T03:06:57;9.30;99.90
9509;DHT22;4792;50.088;8.122;2022-10-03T03:10:08;9.30;99.90
9509;DHT22;4792;50.088;8.122;2022-10-03T03:13:22;9.20;99.90
9509;DHT22;4792;50.088;8.122;2022-10-03T03:19:35;9.10;99.90
9509;DHT22;4792;50.088;8.122;2022-10-03T03:22:17;9.10;99.90
9509;DHT22;4792;50.088;8.122;2022-10-03T03:25:02;9.20;99.90
9509;DHT22;4792;50.088;8.122;2022-10-03T03:27:42;9.20;99.90
9509;DHT22;4792;50.088;8.122;2022-10-03T03:30:17;9.20;99.90
9509;DHT22;4792;50.088;8.122;2022-10-03T03:33:00;9.20;99.90
9509;DHT22;4792;50.088;8.122;2022-10-03T03:35:38;9.20;99.90
9509;DHT22;4792;50.088;8.122;2022-10-03T03:38:17;9.20;99.90
9509;DHT22;4792;50.088;8.122;2022-10-03T03:41:01;9.20;99.90
9509;DHT22;4792;50.088;8.122;2022-10-03T03:43:46;9.10;99.90
9509;DHT22;4792;50.088;8.122;2022-10-03T03:46:30;9.10;99.90
9509;DHT22;4792;50.088;8.122;2022-10-03T03:49:22;9.00;99.90
9509;DHT22;4792;50.088;8.122;2022-10-03T03:52:05;9.00;99.90
9509;DHT22;4792;50.088;8.122;2022-10-03T03:57:51;9.00;99.90
9509;DHT22;4792;50.088;8.122;2022-10-03T04:00:33;8.90;99.90
9509;DHT22;4792;50.088;8.122;2022-10-03T04:06:11;8.90;99.90
9509;DHT22;4792;50.088;8.122;2022-10-03T04:09:00;8.90;99.90
9509;DHT22;4792;50.088;8.122;2022-10-03T04:11:46;8.90;99.90
9509;DHT22;4792;50.088;8.122;2022-10-03T04:17:49;8.90;99.90
9509;DHT22;4792;50.088;8.122;2022-10-03T04:21:05;8.90;99.90
9509;DHT22;4792;50.088;8.122;2022-10-03T04:24:01;8.90;99.90
9509;DHT22;4792;50.088;8.122;2022-10-03T04:26:43;8.90;99.90
9509;DHT22;4792;50.088;8.122;2022-10-03T04:32:25;8.90;99.90
9509;DHT22;4792;50.088;8.122;2022-10-03T04:35:06;8.80;99.90
9509;DHT22;4792;50.088;8.122;2022-10-03T04:37:42;8.90;99.90
9509;DHT22;4792;50.088;8.122;2022-10-03T04:40:24;8.90;99.90
9509;DHT22;4792;50.088;8.122;2022-10-03T04:43:03;8.90;99.90
9509;DHT22;4792;50.088;8.122;2022-10-03T04:45:50;8.90;99.90
9509;DHT22;4792;50.088;8.122;2022-10-03T04:48:30;9.00;99.90
9509;DHT22;4792;50.088;8.122;2022-10-03T04:51:07;9.00;99.90
9509;DHT22;4792;50.088;8.122;2022-10-03T04:53:46;9.00;99.90
9509;DHT22;4792;50.088;8.122;2022-10-03T04:56:29;9.00;99.90
9509;DHT22;4792;50.088;8.122;2022-10-03T04:59:07;9.00;99.90
9509;DHT22;4792;50.088;8.122;2022-10-03T05:01:44;9.00;99.90
9509;DHT22;4792;50.088;8.122;2022-10-03T05:04:21;9.10;99.90
9509;DHT22;4792;50.088;8.122;2022-10-03T05:07:00;9.10;99.90
9509;DHT22;4792;50.088;8.122;2022-10-03T05:09:37;9.00;99.90
9509;DHT22;4792;50.088;8.122;2022-10-03T05:12:13;9.10;99.90
9509;DHT22;4792;50.088;8.122;2022-10-03T05:14:52;9.10;99.90
9509;DHT22;4792;50.088;8.122;2022-10-03T05:17:28;9.10;99.90
9509;DHT22;4792;50.088;8.122;2022-10-03T05:20:19;9.10;99.90
9509;DHT22;4792;50.088;8.122;2022-10-03T05:22:57;9.10;99.90
9509;DHT22;4792;50.088;8.122;2022-10-03T05:25:37;9.10;99.90
9509;DHT22;4792;50.088;8.122;2022-10-03T05:28:17;9.10;99.90
9509;DHT22;4792;50.088;8.122;2022-10-03T05:30:54;9.10;99.90
9509;DHT22;4792;50.088;8.122;2022-10-03T05:33:37;9.20;99.90
9509;DHT22;4792;50.088;8.122;2022-10-03T05:36:18;9.20;99.90
9509;DHT22;4792;50.088;8.122;2022-10-03T05:42:21;9.20;99.90
9509;DHT22;4792;50.088;8.122;2022-10-03T05:44:59;9.20;99.90
9509;DHT22;4792;50.088;8.122;2022-10-03T05:47:36;9.20;99.90
9509;DHT22;4792;50.088;8.122;2022-10-03T05:56:55;9.20;99.90
9509;DHT22;4792;50.088;8.122;2022-10-03T05:59:35;9.30;99.90
9509;DHT22;4792;50.088;8.122;2022-10-03T06:05:15;9.40;99.90
9509;DHT22;4792;50.088;8.122;2022-10-03T06:08:04;9.40;99.90
9509;DHT22;4792;50.088;8.122;2022-10-03T06:10:44;9.50;99.90
9509;DHT22;4792;50.088;8.122;2022-10-03T06:13:28;9.40;99.90
9509;DHT22;4792;50.088;8.122;2022-10-03T06:16:13;9.50;99.90
9509;DHT22;4792;50.088;8.122;2022-10-03T06:19:05;9.40;99.90
9509;DHT22;4792;50.088;8.122;2022-10-03T06:28:06;9.50;99.90
9509;DHT22;4792;50.088;8.122;2022-10-03T06:30:58;9.50;99.90
9509;DHT22;4792;50.088;8.122;2022-10-03T06:33:53;9.60;99.90
9509;DHT22;4792;50.088;8.122;2022-10-03T06:37:00;9.60;99.90
9509;DHT22;4792;50.088;8.122;2022-10-03T06:40:03;9.60;99.90
9509;DHT22;4792;50.088;8.122;2022-10-03T06:42:58;9.60;99.90
9509;DHT22;4792;50.088;8.122;2022-10-03T06:52:10;9.70;99.90
9509;DHT22;4792;50.088;8.122;2022-10-03T06:55:11;9.80;99.90
9509;DHT22;4792;50.088;8.122;2022-10-03T06:58:23;9.80;99.90
9509;DHT22;4792;50.088;8.122;2022-10-03T07:01:01;9.90;99.90
9509;DHT22;4792;50.088;8.122;2022-10-03T07:04:09;9.90;99.90
9509;DHT22;4792;50.088;8.122;2022-10-03T07:07:01;10.00;99.90
9509;DHT22;4792;50.088;8.122;2022-10-03T07:16:05;10.30;99.90
9509;DHT22;4792;50.088;8.122;2022-10-03T07:22:35;10.40;99.90
9509;DHT22;4792;50.088;8.122;2022-10-03T07:25:34;10.40;99.90
9509;DHT22;4792;50.088;8.122;2022-10-03T07:31:13;10.40;99.90
9509;DHT22;4792;50.088;8.122;2022-10-03T07:37:10;10.50;99.90
9509;DHT22;4792;50.088;8.122;2022-10-03T07:40:18;10.50;99.90
9509;DHT22;4792;50.088;8.122;2022-10-03T07:43:14;10.60;99.90
9509;DHT22;4792;50.088;8.122;2022-10-03T07:49:01;10.60;99.90
9509;DHT22;4792;50.088;8.122;2022-10-03T07:51:39;10.60;99.90
9509;DHT22;4792;50.088;8.122;2022-10-03T07:54:34;10.60;99.90
9509;DHT22;4792;50.088;8.122;2022-10-03T07:57:35;10.80;99.90
9509;DHT22;4792;50.088;8.122;2022-10-03T08:00:14;10.80;99.90
9509;DHT22;4792;50.088;8.122;2022-10-03T08:06:16;11.00;99.90
9509;DHT22;4792;50.088;8.122;2022-10-03T08:09:22;11.10;99.90
9509;DHT22;4792;50.088;8.122;2022-10-03T08:14:55;11.20;99.90
9509;DHT22;4792;50.088;8.122;2022-10-03T08:20:51;11.30;99.90
9509;DHT22;4792;50.088;8.122;2022-10-03T08:24:02;11.50;99.90
9509;DHT22;4792;50.088;8.122;2022-10-03T08:26:47;11.50;99.90
9509;DHT22;4792;50.088;8.122;2022-10-03T08:29:33;11.50;99.90
9509;DHT22;4792;50.088;8.122;2022-10-03T08:32:39;11.50;99.90
9509;DHT22;4792;50.088;8.122;2022-10-03T08:35:34;11.60;99.90
9509;DHT22;4792;50.088;8.122;2022-10-03T08:38:33;11.60;99.90
9509;DHT22;4792;50.088;8.122;2022-10-03T08:44:54;11.70;99.90
9509;DHT22;4792;50.088;8.122;2022-10-03T08:53:55;12.10;99.90
9509;DHT22;4792;50.088;8.122;2022-10-03T08:56:40;12.20;99.90
9509;DHT22;4792;50.088;8.122;2022-10-03T09:02:39;12.50;99.90
9509;DHT22;4792;50.088;8.122;2022-10-03T09:08:58;12.70;99.90
9509;DHT22;4792;50.088;8.122;2022-10-03T09:11:52;12.70;99.90
9509;DHT22;4792;50.088;8.122;2022-10-03T09:21:01;12.70;99.90
9509;DHT22;4792;50.088;8.122;2022-10-03T09:27:02;12.80;99.90
9509;DHT22;4792;50.088;8.122;2022-10-03T09:30:07;13.00;99.90
9509;DHT22;4792;50.088;8.122;2022-10-03T09:36:06;13.30;99.90
9509;DHT22;4792;50.088;8.122;2022-10-03T09:39:18;13.40;99.90
9509;DHT22;4792;50.088;8.122;2022-10-03T09:42:16;13.40;99.90
9509;DHT22;4792;50.088;8.122;2022-10-03T09:45:13;13.20;99.90
9509;DHT22;4792;50.088;8.122;2022-10-03T09:54:27;13.30;99.90
9509;DHT22;4792;50.088;8.122;2022-10-03T10:00:14;13.00;99.90
9509;DHT22;4792;50.088;8.122;2022-10-03T10:06:34;13.10;99.90
9509;DHT22;4792;50.088;8.122;2022-10-03T10:09:31;13.20;99.90
9509;DHT22;4792;50.088;8.122;2022-10-03T10:15:49;13.60;99.90
9509;DHT22;4792;50.088;8.122;2022-10-03T10:27:57;14.00;99.90
9509;DHT22;4792;50.088;8.122;2022-10-03T10:34:09;14.50;99.90
9509;DHT22;4792;50.088;8.122;2022-10-03T10:40:06;14.80;99.90
9509;DHT22;4792;50.088;8.122;2022-10-03T10:46:09;14.90;99.90
9509;DHT22;4792;50.088;8.122;2022-10-03T11:04:52;14.50;99.90
9509;DHT22;4792;50.088;8.122;2022-10-03T11:08:05;14.60;99.90
9509;DHT22;4792;50.088;8.122;2022-10-03T11:10:55;14.50;99.90
9509;DHT22;4792;50.088;8.122;2022-10-03T11:17:09;14.60;99.90
9509;DHT22;4792;50.088;8.122;2022-10-03T11:23:51;14.50;99.90
9509;DHT22;4792;50.088;8.122;2022-10-03T11:26:51;14.60;99.90
9509;DHT22;4792;50.088;8.122;2022-10-03T11:36:03;14.60;99.90
9509;DHT22;4792;50.088;8.122;2022-10-03T11:38:37;14.60;99.90
9509;DHT22;4792;50.088;8.122;2022-10-03T11:41:16;14.50;99.90
9509;DHT22;4792;50.088;8.122;2022-10-03T11:44:02;14.40;99.90
9509;DHT22;4792;50.088;8.122;2022-10-03T11:46:48;14.50;99.90
9509;DHT22;4792;50.088;8.122;2022-10-03T11:49:43;14.50;99.90
9509;DHT22;4792;50.088;8.122;2022-10-03T11:52:27;14.60;99.90
9509;DHT22;4792;50.088;8.122;2022-10-03T11:55:13;14.50;99.90
9509;DHT22;4792;50.088;8.122;2022-10-03T11:57:55;14.60;99.90
9509;DHT22;4792;50.088;8.122;2022-10-03T12:00:28;14.60;99.90
9509;DHT22;4792;50.088;8.122;2022-10-03T12:03:11;14.40;99.90
9509;DHT22;4792;50.088;8.122;2022-10-03T12:05:49;14.50;99.90
9509;DHT22;4792;50.088;8.122;2022-10-03T12:08:41;14.50;99.90
9509;DHT22;4792;50.088;8.122;2022-10-03T12:11:24;14.60;99.90
9509;DHT22;4792;50.088;8.122;2022-10-03T12:14:11;14.60;99.90
9509;DHT22;4792;50.088;8.122;2022-10-03T12:17:00;14.80;99.90
9509;DHT22;4792;50.088;8.122;2022-10-03T12:19:33;14.80;99.90
9509;DHT22;4792;50.088;8.122;2022-10-03T12:22:18;15.00;99.90
9509;DHT22;4792;50.088;8.122;2022-10-03T12:24:53;15.20;99.90
9509;DHT22;4792;50.088;8.122;2022-10-03T12:27:38;14.90;99.90
9509;DHT22;4792;50.088;8.122;2022-10-03T12:30:14;14.70;99.90
9509;DHT22;4792;50.088;8.122;2022-10-03T12:32:52;14.80;99.90
9509;DHT22;4792;50.088;8.122;2022-10-03T12:35:37;14.70;99.90
9509;DHT22;4792;50.088;8.122;2022-10-03T12:38:24;14.50;99.90
9509;DHT22;4792;50.088;8.122;2022-10-03T12:41:02;14.30;99.90
9509;DHT22;4792;50.088;8.122;2022-10-03T12:43:48;14.40;99.90
9509;DHT22;4792;50.088;8.122;2022-10-03T12:46:29;14.50;99.90
9509;DHT22;4792;50.088;8.122;2022-10-03T12:49:02;14.50;99.90
9509;DHT22;4792;50.088;8.122;2022-10-03T12:51:46;14.70;99.90
9509;DHT22;4792;50.088;8.122;2022-10-03T12:54:30;14.80;99.90
9509;DHT22;4792;50.088;8.122;2022-10-03T12:57:27;14.80;99.90
9509;DHT22;4792;50.088;8.122;2022-10-03T13:00:04;14.90;99.90
9509;DHT22;4792;50.088;8.122;2022-10-03T13:02:40;15.00;99.90
9509;DHT22;4792;50.088;8.122;2022-10-03T13:08:16;15.00;99.90
9509;DHT22;4792;50.088;8.122;2022-10-03T13:10:49;15.10;99.90
9509;DHT22;4792;50.088;8.122;2022-10-03T13:13:26;15.30;99.90
9509;DHT22;4792;50.088;8.122;2022-10-03T13:16:16;15.40;99.90
9509;DHT22;4792;50.088;8.122;2022-10-03T13:18:54;15.50;99.90
9509;DHT22;4792;50.088;8.122;2022-10-03T13:21:31;15.20;99.90
9509;DHT22;4792;50.088;8.122;2022-10-03T13:24:21;15.10;99.90
9509;DHT22;4792;50.088;8.122;2022-10-03T13:26:58;14.90;99.90
9509;DHT22;4792;50.088;8.122;2022-10-03T13:29:34;14.60;99.90
9509;DHT22;4792;50.088;8.122;2022-10-03T13:32:11;14.60;99.90
9509;DHT22;4792;50.088;8.122;2022-10-03T13:40:57;14.50;99.90
9509;DHT22;4792;50.088;8.122;2022-10-03T13:43:32;14.50;99.90
9509;DHT22;4792;50.088;8.122;2022-10-03T13:46:05;14.50;99.90
9509;DHT22;4792;50.088;8.122;2022-10-03T13:48:38;14.70;99.90
9509;DHT22;4792;50.088;8.122;2022-10-03T13:51:18;14.80;99.90
9509;DHT22;4792;50.088;8.122;2022-10-03T13:53:56;14.90;99.90
9509;DHT22;4792;50.088;8.122;2022-10-03T13:56:40;14.80;99.90
9509;DHT22;4792;50.088;8.122;2022-10-03T13:59:43;14.80;99.90
9509;DHT22;4792;50.088;8.122;2022-10-03T14:02:38;15.00;99.90
9509;DHT22;4792;50.088;8.122;2022-10-03T14:05:30;15.00;99.90
9509;DHT22;4792;50.088;8.122;2022-10-03T14:08:10;14.60;99.90
9509;DHT22;4792;50.088;8.122;2022-10-03T14:11:00;14.30;99.90
9509;DHT22;4792;50.088;8.122;2022-10-03T14:13:42;14.20;99.90
9509;DHT22;4792;50.088;8.122;2022-10-03T14:16:19;14.10;99.90
9509;DHT22;4792;50.088;8.122;2022-10-03T14:18:55;14.20;99.90
9509;DHT22;4792;50.088;8.122;2022-10-03T14:21:39;14.20;99.90
9509;DHT22;4792;50.088;8.122;2022-10-03T14:24:23;14.30;99.90
9509;DHT22;4792;50.088;8.122;2022-10-03T14:26:58;14.60;99.90
9509;DHT22;4792;50.088;8.122;2022-10-03T14:29:36;14.60;99.90
9509;DHT22;4792;50.088;8.122;2022-10-03T14:32:13;14.60;99.90
9509;DHT22;4792;50.088;8.122;2022-10-03T14:35:11;14.60;99.90
9509;DHT22;4792;50.088;8.122;2022-10-03T14:37:47;14.70;99.90
9509;DHT22;4792;50.088;8.122;2022-10-03T14:40:23;14.70;99.90
9509;DHT22;4792;50.088;8.122;2022-10-03T14:45:49;14.50;99.90
9509;DHT22;4792;50.088;8.122;2022-10-03T14:48:21;14.70;99.90
9509;DHT22;4792;50.088;8.122;2022-10-03T14:50:56;14.80;99.90
9509;DHT22;4792;50.088;8.122;2022-10-03T14:53:30;14.80;99.90
9509;DHT22;4792;50.088;8.122;2022-10-03T14:56:01;14.80;99.90
9509;DHT22;4792;50.088;8.122;2022-10-03T14:58:36;14.90;99.90
9509;DHT22;4792;50.088;8.122;2022-10-03T15:01:11;14.90;99.90
9509;DHT22;4792;50.088;8.122;2022-10-03T15:03:43;14.90;99.90
9509;DHT22;4792;50.088;8.122;2022-10-03T15:06:47;15.00;99.90
9509;DHT22;4792;50.088;8.122;2022-10-03T15:09:29;15.20;99.90
9509;DHT22;4792;50.088;8.122;2022-10-03T15:12:05;15.20;99.90
9509;DHT22;4792;50.088;8.122;2022-10-03T15:14:37;14.90;99.90
9509;DHT22;4792;50.088;8.122;2022-10-03T15:17:16;14.90;99.90
9509;DHT22;4792;50.088;8.122;2022-10-03T15:19:49;14.50;99.90
9509;DHT22;4792;50.088;8.122;2022-10-03T15:22:31;14.50;99.90
9509;DHT22;4792;50.088;8.122;2022-10-03T15:25:07;14.20;99.90
9509;DHT22;4792;50.088;8.122;2022-10-03T15:27:41;14.30;99.90
9509;DHT22;4792;50.088;8.122;2022-10-03T15:30:19;14.10;99.90
9509;DHT22;4792;50.088;8.122;2022-10-03T15:32:49;14.00;99.90
9509;DHT22;4792;50.088;8.122;2022-10-03T15:35:20;14.00;99.90
9509;DHT22;4792;50.088;8.122;2022-10-03T15:37:51;14.00;99.90
9509;DHT22;4792;50.088;8.122;2022-10-03T15:40:21;13.90;99.90
9509;DHT22;4792;50.088;8.122;2022-10-03T15:43:03;13.70;99.90
9509;DHT22;4792;50.088;8.122;2022-10-03T15:45:34;13.60;99.90
9509;DHT22;4792;50.088;8.122;2022-10-03T15:48:08;13.60;99.90
9509;DHT22;4792;50.088;8.122;2022-10-03T15:50:39;13.60;99.90
9509;DHT22;4792;50.088;8.122;2022-10-03T15:53:15;13.60;99.90
9509;DHT22;4792;50.088;8.122;2022-10-03T15:56:08;13.60;99.90
9509;DHT22;4792;50.088;8.122;2022-10-03T15:58:46;13.50;99.90
9509;DHT22;4792;50.088;8.122;2022-10-03T16:01:19;13.50;99.90
9509;DHT22;4792;50.088;8.122;2022-10-03T16:03:50;13.50;99.90
9509;DHT22;4792;50.088;8.122;2022-10-03T16:06:22;13.50;99.90
9509;DHT22;4792;50.088;8.122;2022-10-03T16:08:58;13.50;99.90
9509;DHT22;4792;50.088;8.122;2022-10-03T16:11:31;13.60;99.90
9509;DHT22;4792;50.088;8.122;2022-10-03T16:14:17;13.70;99.90
9509;DHT22;4792;50.088;8.122;2022-10-03T16:16:50;13.70;99.90
9509;DHT22;4792;50.088;8.122;2022-10-03T16:19:28;13.70;99.90
9509;DHT22;4792;50.088;8.122;2022-10-03T16:22:12;13.50;99.90
9509;DHT22;4792;50.088;8.122;2022-10-03T16:24:50;13.50;99.90
9509;DHT22;4792;50.088;8.122;2022-10-03T16:27:21;13.50;99.90
9509;DHT22;4792;50.088;8.122;2022-10-03T16:30:09;13.50;99.90
9509;DHT22;4792;50.088;8.122;2022-10-03T16:32:45;13.50;99.90
9509;DHT22;4792;50.088;8.122;2022-10-03T16:35:26;13.50;99.90
9509;DHT22;4792;50.088;8.122;2022-10-03T16:37:57;13.50;99.90
9509;DHT22;4792;50.088;8.122;2022-10-03T16:40:26;13.30;99.90
9509;DHT22;4792;50.088;8.122;2022-10-03T16:42:57;13.30;99.90
9509;DHT22;4792;50.088;8.122;2022-10-03T16:45:29;13.30;99.90
9509;DHT22;4792;50.088;8.122;2022-10-03T16:48:02;13.30;99.90
9509;DHT22;4792;50.088;8.122;2022-10-03T16:50:54;13.30;99.90
9509;DHT22;4792;50.088;8.122;2022-10-03T16:53:23;13.30;99.90
9509;DHT22;4792;50.088;8.122;2022-10-03T16:55:55;13.30;99.90
9509;DHT22;4792;50.088;8.122;2022-10-03T16:58:28;13.20;99.90
9509;DHT22;4792;50.088;8.122;2022-10-03T17:01:00;13.20;99.90
9509;DHT22;4792;50.088;8.122;2022-10-03T17:03:54;13.10;99.90
9509;DHT22;4792;50.088;8.122;2022-10-03T17:06:28;13.10;99.90
9509;DHT22;4792;50.088;8.122;2022-10-03T17:09:02;13.00;99.90
9509;DHT22;4792;50.088;8.122;2022-10-03T17:11:33;12.90;99.90
9509;DHT22;4792;50.088;8.122;2022-10-03T17:14:06;12.90;99.90
9509;DHT22;4792;50.088;8.122;2022-10-03T17:16:39;12.80;99.90
9509;DHT22;4792;50.088;8.122;2022-10-03T17:19:18;12.70;99.90
9509;DHT22;4792;50.088;8.122;2022-10-03T17:21:51;12.70;99.90
9509;DHT22;4792;50.088;8.122;2022-10-03T17:24:32;12.60;99.90
9509;DHT22;4792;50.088;8.122;2022-10-03T17:27:08;12.50;99.90
9509;DHT22;4792;50.088;8.122;2022-10-03T17:29:43;12.40;99.90
9509;DHT22;4792;50.088;8.122;2022-10-03T17:32:20;12.30;99.90
9509;DHT22;4792;50.088;8.122;2022-10-03T17:34:54;12.30;99.90
9509;DHT22;4792;50.088;8.122;2022-10-03T17:37:55;12.20;99.90
9509;DHT22;4792;50.088;8.122;2022-10-03T17:40:49;12.10;99.90
9509;DHT22;4792;50.088;8.122;2022-10-03T17:43:29;12.10;99.90
9509;DHT22;4792;50.088;8.122;2022-10-03T17:46:04;12.00;99.90
9509;DHT22;4792;50.088;8.122;2022-10-03T17:48:42;11.90;99.90
9509;DHT22;4792;50.088;8.122;2022-10-03T17:51:33;11.90;99.90
9509;DHT22;4792;50.088;8.122;2022-10-03T17:54:09;11.80;99.90
9509;DHT22;4792;50.088;8.122;2022-10-03T17:56:44;11.70;99.90
9509;DHT22;4792;50.088;8.122;2022-10-03T17:59:14;11.70;99.90
9509;DHT22;4792;50.088;8.122;2022-10-03T18:01:50;11.60;99.90
9509;DHT22;4792;50.088;8.122;2022-10-03T18:04:27;11.60;99.90
9509;DHT22;4792;50.088;8.122;2022-10-03T18:07:00;11.50;99.90
9509;DHT22;4792;50.088;8.122;2022-10-03T18:09:33;11.50;99.90
9509;DHT22;4792;50.088;8.122;2022-10-03T18:12:20;11.40;99.90
9509;DHT22;4792;50.088;8.122;2022-10-03T18:15:19;11.30;99.90
9509;DHT22;4792;50.088;8.122;2022-10-03T18:17:59;11.30;99.90
9509;DHT22;4792;50.088;8.122;2022-10-03T18:20:44;11.20;99.90
9509;DHT22;4792;50.088;8.122;2022-10-03T18:23:19;11.20;99.90
9509;DHT22;4792;50.088;8.122;2022-10-03T18:26:16;11.10;99.90
9509;DHT22;4792;50.088;8.122;2022-10-03T18:28:57;11.10;99.90
9509;DHT22;4792;50.088;8.122;2022-10-03T18:31:27;11.00;99.90
9509;DHT22;4792;50.088;8.122;2022-10-03T18:34:02;10.90;99.90
9509;DHT22;4792;50.088;8.122;2022-10-03T18:36:45;11.00;99.90
9509;DHT22;4792;50.088;8.122;2022-10-03T18:39:16;10.90;99.90
9509;DHT22;4792;50.088;8.122;2022-10-03T18:41:47;10.80;99.90
9509;DHT22;4792;50.088;8.122;2022-10-03T18:44:18;10.80;99.90
9509;DHT22;4792;50.088;8.122;2022-10-03T18:46:49;10.90;99.90
9509;DHT22;4792;50.088;8.122;2022-10-03T18:49:22;10.80;99.90
9509;DHT22;4792;50.088;8.122;2022-10-03T18:52:08;10.80;99.90
9509;DHT22;4792;50.088;8.122;2022-10-03T18:54:48;10.70;99.90
9509;DHT22;4792;50.088;8.122;2022-10-03T18:57:22;10.70;99.90
9509;DHT22;4792;50.088;8.122;2022-10-03T18:59:55;10.60;99.90
9509;DHT22;4792;50.088;8.122;2022-10-03T19:02:31;10.60;99.90
9509;DHT22;4792;50.088;8.122;2022-10-03T19:05:08;10.60;99.90
9509;DHT22;4792;50.088;8.122;2022-10-03T19:07:44;10.60;99.90
9509;DHT22;4792;50.088;8.122;2022-10-03T19:10:37;10.50;99.90
9509;DHT22;4792;50.088;8.122;2022-10-03T19:13:15;10.60;99.90
9509;DHT22;4792;50.088;8.122;2022-10-03T19:16:03;10.50;99.90
9509;DHT22;4792;50.088;8.122;2022-10-03T19:18:40;10.50;99.90
9509;DHT22;4792;50.088;8.122;2022-10-03T19:21:13;10.40;99.90
9509;DHT22;4792;50.088;8.122;2022-10-03T19:23:49;10.40;99.90
9509;DHT22;4792;50.088;8.122;2022-10-03T19:26:22;10.40;99.90
9509;DHT22;4792;50.088;8.122;2022-10-03T19:28:53;10.40;99.90
9509;DHT22;4792;50.088;8.122;2022-10-03T19:31:26;10.30;99.90
9509;DHT22;4792;50.088;8.122;2022-10-03T19:33:59;10.30;99.90
9509;DHT22;4792;50.088;8.122;2022-10-03T19:36:33;10.30;99.90
9509;DHT22;4792;50.088;8.122;2022-10-03T19:39:04;10.30;99.90
9509;DHT22;4792;50.088;8.122;2022-10-03T19:41:37;10.40;99.90
9509;DHT22;4792;50.088;8.122;2022-10-03T19:44:14;10.30;99.90
9509;DHT22;4792;50.088;8.122;2022-10-03T19:47:02;10.20;99.90
9509;DHT22;4792;50.088;8.122;2022-10-03T19:49:46;10.20;99.90
9509;DHT22;4792;50.088;8.122;2022-10-03T19:52:20;10.20;99.90
9509;DHT22;4792;50.088;8.122;2022-10-03T19:54:59;10.20;99.90
9509;DHT22;4792;50.088;8.122;2022-10-03T19:57:37;10.20;99.90
9509;DHT22;4792;50.088;8.122;2022-10-03T20:00:23;10.10;99.90
9509;DHT22;4792;50.088;8.122;2022-10-03T20:03:04;10.10;99.90
9509;DHT22;4792;50.088;8.122;2022-10-03T20:05:38;10.10;99.90
9509;DHT22;4792;50.088;8.122;2022-10-03T20:08:20;10.00;99.90
9509;DHT22;4792;50.088;8.122;2022-10-03T20:11:00;10.00;99.90
9509;DHT22;4792;50.088;8.122;2022-10-03T20:13:30;10.00;99.90
9509;DHT22;4792;50.088;8.122;2022-10-03T20:15:59;10.00;99.90
9509;DHT22;4792;50.088;8.122;2022-10-03T20:18:31;9.90;99.90
9509;DHT22;4792;50.088;8.122;2022-10-03T20:21:00;9.90;99.90
9509;DHT22;4792;50.088;8.122;2022-10-03T20:23:31;9.90;99.90
9509;DHT22;4792;50.088;8.122;2022-10-03T20:26:06;9.90;99.90
9509;DHT22;4792;50.088;8.122;2022-10-03T20:28:56;9.90;99.90
9509;DHT22;4792;50.088;8.122;2022-10-03T20:31:29;9.90;99.90
9509;DHT22;4792;50.088;8.122;2022-10-03T20:34:00;9.90;99.90
9509;DHT22;4792;50.088;8.122;2022-10-03T20:36:32;9.90;99.90
9509;DHT22;4792;50.088;8.122;2022-10-03T20:39:09;9.90;99.90
9509;DHT22;4792;50.088;8.122;2022-10-03T20:41:49;9.80;99.90
9509;DHT22;4792;50.088;8.122;2022-10-03T20:47:41;9.80;99.90
9509;DHT22;4792;50.088;8.122;2022-10-03T20:50:17;9.80;99.90
9509;DHT22;4792;50.088;8.122;2022-10-03T20:52:52;9.70;99.90
9509;DHT22;4792;50.088;8.122;2022-10-03T20:55:24;9.70;99.90
9509;DHT22;4792;50.088;8.122;2022-10-03T20:58:09;9.70;99.90
9509;DHT22;4792;50.088;8.122;2022-10-03T21:00:43;9.70;99.90
9509;DHT22;4792;50.088;8.122;2022-10-03T21:03:20;9.70;99.90